Time;durP1;ratioP1;P1;durP2;ratioP2;P2;SDS_P1;SDS_P2;PMS_P1;PMS_P2;Temp;Humidity;BMP_temperature;BMP_pressure;BME280_temperature;BME280_humidity;BME280_pressure;Samples;Min_cycle;Max_cycle;Signal;HPM_P1;HPM_P2
2024/02/21 00:00:11;;;;;;;7.43;4.03;;;;;;;;;;5048511;28;20217;-67
2024/02/21 00:02:36;;;;;;;11.53;3.40;;;;;;;;;;5046990;28;20162;-68
2024/02/21 00:05:02;;;;;;;13.03;3.57;;;;;;;;;;5044202;28;20186;-68
2024/02/21 00:07:27;;;;;;;9.63;4.37;;;;;;;;;;5028287;28;20231;-69
2024/02/21 00:09:53;;;;;;;11.77;3.33;;;;;;;;;;5045173;28;20291;-68
2024/02/21 00:12:18;;;;;;;11.90;3.53;;;;;;;;;;5041648;28;20169;-68
2024/02/21 00:14:43;;;;;;;10.00;3.73;;;;;;;;;;5044155;28;20221;-66
2024/02/21 00:17:08;;;;;;;9.87;3.27;;;;;;;;;;5046302;28;20185;-69
2024/02/21 00:19:34;;;;;;;9.63;3.43;;;;;;;;;;5047857;28;20204;-69
2024/02/21 00:21:59;;;;;;;10.67;3.07;;;;;;;;;;5041763;28;20685;-67
2024/02/21 00:24:24;;;;;;;11.80;3.20;;;;;;;;;;5046881;28;20414;-68
2024/02/21 00:26:49;;;;;;;7.53;3.00;;;;;;;;;;5044146;28;20185;-67
2024/02/21 00:29:14;;;;;;;8.17;3.13;;;;;;;;;;5047265;28;20200;-69
2024/02/21 00:31:40;;;;;;;11.13;3.40;;;;;;;;;;5043596;28;20700;-68
2024/02/21 00:34:05;;;;;;;15.33;4.03;;;;;;;;;;5046619;28;20292;-69
2024/02/21 00:36:30;;;;;;;10.80;3.90;;;;;;;;;;5046014;28;20181;-69
2024/02/21 00:38:55;;;;;;;11.93;3.07;;;;;;;;;;5019061;28;20205;-68
2024/02/21 00:41:21;;;;;;;15.33;2.93;;;;;;;;;;5031038;28;20292;-68
2024/02/21 00:43:48;;;;;;;10.57;3.93;;;;;;;;;;5034530;28;21690;-69
2024/02/21 00:46:13;;;;;;;7.30;2.97;;;;;;;;;;5035294;28;20322;-67
2024/02/21 00:48:38;;;;;;;16.13;4.03;;;;;;;;;;5035190;28;20255;-68
2024/02/21 00:51:03;;;;;;;8.87;2.90;;;;;;;;;;5035026;28;20808;-67
2024/02/21 00:53:29;;;;;;;6.33;2.80;;;;;;;;;;5042216;28;20197;-68
2024/02/21 00:55:56;;;;;;;8.03;2.80;;;;;;;;;;5049228;28;20182;-68
2024/02/21 00:58:21;;;;;;;8.87;3.07;;;;;;;;;;5034372;28;20225;-68
2024/02/21 01:00:46;;;;;;;10.50;2.90;;;;;;;;;;5034942;28;20625;-69
2024/02/21 01:03:11;;;;;;;9.37;3.57;;;;;;;;;;5034967;28;20185;-67
2024/02/21 01:05:36;;;;;;;11.53;3.60;;;;;;;;;;5041181;28;20254;-69
2024/02/21 01:08:02;;;;;;;12.10;3.33;;;;;;;;;;5021342;28;20209;-68
2024/02/21 01:10:27;;;;;;;11.37;3.80;;;;;;;;;;5049423;28;20265;-68
2024/02/21 01:12:52;;;;;;;7.63;3.50;;;;;;;;;;5051065;28;20201;-68
2024/02/21 01:15:17;;;;;;;12.80;3.47;;;;;;;;;;5053488;28;20657;-68
2024/02/21 01:17:42;;;;;;;11.07;3.70;;;;;;;;;;5050089;28;20174;-69
2024/02/21 01:20:08;;;;;;;8.47;3.70;;;;;;;;;;5051004;28;20189;-68
2024/02/21 01:22:33;;;;;;;11.60;3.70;;;;;;;;;;5050209;28;20216;-68
2024/02/21 01:24:58;;;;;;;7.80;3.77;;;;;;;;;;5050749;28;20188;-69
2024/02/21 01:27:24;;;;;;;13.70;4.40;;;;;;;;;;5046016;28;20180;-69
2024/02/21 01:29:49;;;;;;;8.20;4.43;;;;;;;;;;5049419;28;20193;-68
2024/02/21 01:32:15;;;;;;;12.53;4.83;;;;;;;;;;5047752;28;20184;-69
2024/02/21 01:34:40;;;;;;;12.73;4.80;;;;;;;;;;5051976;28;20233;-68
2024/02/21 01:37:07;;;;;;;12.97;5.00;;;;;;;;;;5051762;28;20228;-68
2024/02/21 01:39:32;;;;;;;13.27;3.70;;;;;;;;;;5029863;28;20575;-68
2024/02/21 01:41:58;;;;;;;13.03;4.37;;;;;;;;;;5047245;28;20169;-68
2024/02/21 01:44:23;;;;;;;12.17;4.87;;;;;;;;;;5047795;28;20842;-69
2024/02/21 01:46:48;;;;;;;11.87;4.60;;;;;;;;;;5043109;28;20181;-69
2024/02/21 01:49:13;;;;;;;9.43;4.97;;;;;;;;;;5050110;28;20225;-69
2024/02/21 01:51:39;;;;;;;8.20;3.83;;;;;;;;;;5051153;28;20176;-68
2024/02/21 01:54:05;;;;;;;10.90;4.83;;;;;;;;;;5048260;28;20194;-68
2024/02/21 01:56:30;;;;;;;9.67;4.73;;;;;;;;;;5048136;28;20189;-67
2024/02/21 01:58:55;;;;;;;18.40;4.53;;;;;;;;;;5049291;28;20616;-69
2024/02/21 02:01:21;;;;;;;9.17;4.17;;;;;;;;;;5032943;28;20312;-68
2024/02/21 02:03:46;;;;;;;10.67;4.87;;;;;;;;;;5052829;28;20185;-67
2024/02/21 02:06:12;;;;;;;16.40;4.33;;;;;;;;;;5021381;28;20268;-69
2024/02/21 02:08:37;;;;;;;11.83;4.53;;;;;;;;;;5049352;28;20220;-68
2024/02/21 02:11:02;;;;;;;19.07;5.00;;;;;;;;;;5029027;28;20625;-69
2024/02/21 02:13:28;;;;;;;16.80;3.93;;;;;;;;;;5031329;28;20210;-69
2024/02/21 02:15:54;;;;;;;14.10;4.53;;;;;;;;;;5049065;28;20602;-69
2024/02/21 02:18:19;;;;;;;10.20;4.07;;;;;;;;;;5049825;28;20665;-67
2024/02/21 02:20:45;;;;;;;9.27;4.30;;;;;;;;;;5046566;28;20653;-67
2024/02/21 02:23:27;;;;;;;12.13;3.77;;;;;;;;;;5048450;28;20645;-69
2024/02/21 02:25:52;;;;;;;11.23;3.87;;;;;;;;;;5048284;28;20200;-69
2024/02/21 02:28:18;;;;;;;8.90;3.70;;;;;;;;;;5048410;28;20194;-68
2024/02/21 02:30:43;;;;;;;10.10;3.47;;;;;;;;;;5029809;28;20223;-69
2024/02/21 02:33:09;;;;;;;7.33;3.73;;;;;;;;;;5047210;28;20285;-69
2024/02/21 02:35:37;;;;;;;8.40;3.50;;;;;;;;;;5030279;28;20170;-68
2024/02/21 02:38:03;;;;;;;8.67;3.73;;;;;;;;;;5029814;28;20174;-68
2024/02/21 02:40:28;;;;;;;10.03;3.67;;;;;;;;;;5048667;28;20260;-68
2024/02/21 02:42:54;;;;;;;5.87;3.30;;;;;;;;;;5027402;28;20182;-69
2024/02/21 02:45:20;;;;;;;13.50;3.80;;;;;;;;;;5050519;28;20182;-69
2024/02/21 02:47:46;;;;;;;13.40;4.20;;;;;;;;;;5050551;28;20235;-68
2024/02/21 02:50:11;;;;;;;9.00;4.53;;;;;;;;;;5049395;28;20245;-68
2024/02/21 02:52:36;;;;;;;9.15;4.55;;;;;;;;;;5032761;28;20268;-69
2024/02/21 02:55:01;;;;;;;15.20;4.40;;;;;;;;;;5044734;28;20213;-67
2024/02/21 02:57:27;;;;;;;8.43;3.70;;;;;;;;;;5047955;28;20174;-66
2024/02/21 02:59:52;;;;;;;10.33;4.60;;;;;;;;;;5067114;22;20233;-71
2024/02/21 03:02:17;;;;;;;8.87;3.47;;;;;;;;;;5030306;28;20177;-70
2024/02/21 03:04:43;;;;;;;9.83;4.43;;;;;;;;;;5022057;28;20193;-70
2024/02/21 03:07:08;;;;;;;7.37;3.77;;;;;;;;;;5041454;28;20578;-70
2024/02/21 03:09:33;;;;;;;10.80;4.23;;;;;;;;;;5033897;28;20194;-70
2024/02/21 03:12:02;;;;;;;10.43;4.40;;;;;;;;;;5036818;28;20691;-70
2024/02/21 03:14:30;;;;;;;9.83;3.70;;;;;;;;;;5029441;28;20198;-70
2024/02/21 03:16:56;;;;;;;8.03;3.80;;;;;;;;;;5029026;28;20185;-70
2024/02/21 03:19:21;;;;;;;7.60;3.27;;;;;;;;;;5011419;28;20202;-70
2024/02/21 03:21:46;;;;;;;7.43;4.10;;;;;;;;;;5027795;28;20258;-70
2024/02/21 03:24:11;;;;;;;9.37;4.47;;;;;;;;;;5028629;28;20179;-69
2024/02/21 03:26:37;;;;;;;8.23;3.73;;;;;;;;;;5027779;28;20244;-70
2024/02/21 03:29:03;;;;;;;9.77;4.13;;;;;;;;;;5030053;28;20213;-70
2024/02/21 03:31:28;;;;;;;17.60;5.07;;;;;;;;;;5011512;28;20323;-70
2024/02/21 03:33:53;;;;;;;7.10;3.57;;;;;;;;;;5029140;28;20295;-70
2024/02/21 03:36:18;;;;;;;7.13;3.97;;;;;;;;;;5028104;28;20671;-70
2024/02/21 03:38:44;;;;;;;6.35;4.10;;;;;;;;;;5037021;28;20197;-70
2024/02/21 03:41:10;;;;;;;9.43;3.20;;;;;;;;;;5025889;28;20224;-70
2024/02/21 03:43:37;;;;;;;7.30;4.20;;;;;;;;;;5028517;28;20590;-70
2024/02/21 03:46:02;;;;;;;9.30;4.23;;;;;;;;;;5028025;28;20210;-70
2024/02/21 03:48:27;;;;;;;10.33;3.73;;;;;;;;;;5027006;28;20221;-69
2024/02/21 03:50:52;;;;;;;11.43;4.20;;;;;;;;;;5026600;28;20202;-70
2024/02/21 03:53:18;;;;;;;14.07;4.13;;;;;;;;;;5028793;28;20665;-70
2024/02/21 03:55:43;;;;;;;13.77;4.50;;;;;;;;;;5027881;28;20174;-70
2024/02/21 03:58:09;;;;;;;12.13;4.93;;;;;;;;;;5011520;28;20552;-70
2024/02/21 04:00:34;;;;;;;9.83;4.37;;;;;;;;;;5030234;28;20317;-70
2024/02/21 04:02:59;;;;;;;12.73;4.87;;;;;;;;;;5027983;28;20197;-70
2024/02/21 04:05:24;;;;;;;9.40;3.70;;;;;;;;;;5031533;28;20604;-70
2024/02/21 04:07:51;;;;;;;9.10;3.63;;;;;;;;;;5030443;28;20183;-70
2024/02/21 04:10:16;;;;;;;8.30;5.17;;;;;;;;;;5025672;28;20556;-70
2024/02/21 04:12:41;;;;;;;8.87;5.10;;;;;;;;;;5011185;28;20236;-70
2024/02/21 04:15:07;;;;;;;17.03;5.47;;;;;;;;;;5032245;28;20253;-70
2024/02/21 04:17:32;;;;;;;10.10;4.50;;;;;;;;;;5028917;28;20710;-70
2024/02/21 04:20:02;;;;;;;10.03;4.03;;;;;;;;;;5032678;28;20206;-70
2024/02/21 04:22:27;;;;;;;13.97;5.37;;;;;;;;;;5028672;28;20571;-70
2024/02/21 04:24:52;;;;;;;9.40;4.00;;;;;;;;;;5031530;28;20177;-70
2024/02/21 04:27:17;;;;;;;11.03;5.03;;;;;;;;;;5013564;28;20253;-70
2024/02/21 04:29:42;;;;;;;8.27;5.17;;;;;;;;;;5033982;28;20243;-70
2024/02/21 04:32:08;;;;;;;12.90;4.53;;;;;;;;;;5026433;28;20547;-70
2024/02/21 04:34:33;;;;;;;10.70;5.07;;;;;;;;;;5033427;28;20216;-70
2024/02/21 04:36:59;;;;;;;10.37;5.87;;;;;;;;;;5026827;28;20220;-68
2024/02/21 04:39:24;;;;;;;7.63;5.13;;;;;;;;;;5033893;28;20221;-70
2024/02/21 04:41:49;;;;;;;10.63;5.77;;;;;;;;;;5028978;28;20178;-70
2024/02/21 04:44:15;;;;;;;11.40;6.20;;;;;;;;;;5027898;28;20178;-70
2024/02/21 04:46:44;;;;;;;9.33;5.50;;;;;;;;;;5026440;28;20182;-70
2024/02/21 04:49:09;;;;;;;11.50;7.00;;;;;;;;;;5032523;28;20637;-69
2024/02/21 04:51:34;;;;;;;10.40;6.63;;;;;;;;;;5024693;28;20261;-70
2024/02/21 04:54:00;;;;;;;8.70;5.77;;;;;;;;;;5029044;28;20646;-70
2024/02/21 04:56:26;;;;;;;11.30;6.70;;;;;;;;;;5025913;28;20264;-70
2024/02/21 04:58:51;;;;;;;12.30;5.67;;;;;;;;;;5012455;28;20214;-70
2024/02/21 05:01:16;;;;;;;8.87;5.20;;;;;;;;;;5008270;28;20181;-70
2024/02/21 05:03:42;;;;;;;8.70;5.57;;;;;;;;;;5030776;28;20192;-69
2024/02/21 05:06:07;;;;;;;15.10;5.77;;;;;;;;;;5026010;28;20175;-69
2024/02/21 05:08:33;;;;;;;12.03;5.90;;;;;;;;;;5032533;28;20763;-70
2024/02/21 05:10:58;;;;;;;15.40;7.17;;;;;;;;;;5025801;28;20273;-69
2024/02/21 05:13:23;;;;;;;8.43;5.37;;;;;;;;;;5025510;28;20558;-69
2024/02/21 05:15:48;;;;;;;8.70;5.73;;;;;;;;;;5027001;28;20265;-69
2024/02/21 05:18:13;;;;;;;9.10;5.50;;;;;;;;;;5027396;28;20198;-69
2024/02/21 05:20:39;;;;;;;9.80;5.23;;;;;;;;;;5025612;28;20174;-69
2024/02/21 05:23:04;;;;;;;7.33;5.40;;;;;;;;;;5029159;28;20608;-69
2024/02/21 05:25:29;;;;;;;11.67;5.97;;;;;;;;;;5028227;28;20181;-69
2024/02/21 05:27:55;;;;;;;9.17;6.03;;;;;;;;;;5010777;28;20198;-69
2024/02/21 05:30:20;;;;;;;8.37;4.97;;;;;;;;;;5008910;28;20182;-70
2024/02/21 05:32:46;;;;;;;8.23;5.43;;;;;;;;;;5025584;28;20181;-70
2024/02/21 05:35:11;;;;;;;9.80;5.30;;;;;;;;;;5032263;28;20213;-69
2024/02/21 05:37:36;;;;;;;10.40;5.63;;;;;;;;;;5032483;28;20649;-69
2024/02/21 05:40:01;;;;;;;9.80;5.00;;;;;;;;;;5030521;28;20236;-69
2024/02/21 05:42:27;;;;;;;10.47;6.13;;;;;;;;;;5030897;28;20257;-69
2024/02/21 05:44:52;;;;;;;14.63;6.23;;;;;;;;;;5030679;28;20186;-69
2024/02/21 05:47:20;;;;;;;12.63;6.93;;;;;;;;;;5029062;28;20618;-69
2024/02/21 05:49:45;;;;;;;11.63;6.60;;;;;;;;;;5029002;28;20200;-70
2024/02/21 05:52:11;;;;;;;14.83;6.73;;;;;;;;;;5028865;28;20562;-69
2024/02/21 05:54:39;;;;;;;14.03;7.00;;;;;;;;;;5029868;28;20238;-70
2024/02/21 05:57:05;;;;;;;12.80;6.60;;;;;;;;;;5029380;28;20178;-70
2024/02/21 05:59:30;;;;;;;16.30;7.87;;;;;;;;;;5027118;28;20295;-68
2024/02/21 06:01:57;;;;;;;20.90;8.17;;;;;;;;;;5030435;28;20264;-70
2024/02/21 06:04:22;;;;;;;16.93;8.40;;;;;;;;;;5028873;28;20174;-70
2024/02/21 06:06:47;;;;;;;15.17;8.73;;;;;;;;;;5031453;28;20182;-69
2024/02/21 06:09:13;;;;;;;16.50;9.80;;;;;;;;;;5030472;28;20288;-70
2024/02/21 06:11:38;;;;;;;16.90;9.07;;;;;;;;;;5028855;28;20188;-70
2024/02/21 06:14:03;;;;;;;18.10;8.67;;;;;;;;;;5012834;28;20206;-68
2024/02/21 06:16:28;;;;;;;25.87;8.93;;;;;;;;;;5028560;28;20585;-70
2024/02/21 06:18:53;;;;;;;14.50;7.97;;;;;;;;;;5026845;28;20240;-69
2024/02/21 06:21:19;;;;;;;17.20;7.43;;;;;;;;;;5028159;28;20639;-69
2024/02/21 06:23:44;;;;;;;14.13;7.33;;;;;;;;;;5028513;28;20252;-69
2024/02/21 06:26:09;;;;;;;14.30;7.77;;;;;;;;;;5027386;28;20563;-70
2024/02/21 06:28:34;;;;;;;13.80;7.93;;;;;;;;;;5026580;28;20202;-70
2024/02/21 06:31:00;;;;;;;16.47;8.43;;;;;;;;;;5026500;28;20190;-70
2024/02/21 06:33:25;;;;;;;15.67;7.60;;;;;;;;;;5027798;28;20332;-70
2024/02/21 06:35:52;;;;;;;20.13;7.90;;;;;;;;;;5020626;28;20174;-69
2024/02/21 06:38:18;;;;;;;22.97;8.80;;;;;;;;;;5010506;28;20612;-69
2024/02/21 06:40:48;;;;;;;16.40;7.60;;;;;;;;;;5026929;28;20182;-70
2024/02/21 06:43:14;;;;;;;17.63;8.37;;;;;;;;;;5027313;28;20313;-70
2024/02/21 06:45:39;;;;;;;15.63;8.67;;;;;;;;;;5013609;28;20269;-69
2024/02/21 06:48:04;;;;;;;17.57;9.13;;;;;;;;;;5008941;28;20313;-69
2024/02/21 06:50:29;;;;;;;19.43;8.20;;;;;;;;;;5025602;28;20205;-69
2024/02/21 06:52:54;;;;;;;17.87;8.97;;;;;;;;;;5022591;28;20178;-70
2024/02/21 06:55:20;;;;;;;18.57;7.97;;;;;;;;;;5033071;28;20215;-70
2024/02/21 06:57:45;;;;;;;18.90;8.20;;;;;;;;;;5031276;28;20170;-70
2024/02/21 07:00:10;;;;;;;28.30;9.57;;;;;;;;;;5027728;28;20205;-68
2024/02/21 07:02:36;;;;;;;16.07;8.50;;;;;;;;;;5034918;28;20248;-69
2024/02/21 07:05:01;;;;;;;14.20;8.07;;;;;;;;;;5033975;28;20192;-69
2024/02/21 07:07:26;;;;;;;17.60;8.80;;;;;;;;;;5013615;28;20185;-70
2024/02/21 07:09:52;;;;;;;20.77;8.90;;;;;;;;;;5029954;28;20340;-70
2024/02/21 07:12:18;;;;;;;15.33;8.13;;;;;;;;;;5028118;28;20186;-68
2024/02/21 07:14:44;;;;;;;23.60;9.03;;;;;;;;;;5008266;28;20244;-69
2024/02/21 07:17:09;;;;;;;21.77;9.17;;;;;;;;;;5011735;28;20692;-71
2024/02/21 07:19:35;;;;;;;18.47;9.40;;;;;;;;;;5014680;28;20268;-68
2024/02/21 07:22:00;;;;;;;18.63;9.23;;;;;;;;;;5032382;28;20188;-69
2024/02/21 07:24:25;;;;;;;20.47;9.43;;;;;;;;;;5030046;28;20624;-69
2024/02/21 07:26:51;;;;;;;17.83;8.67;;;;;;;;;;5027847;28;20186;-69
2024/02/21 07:29:16;;;;;;;20.73;8.97;;;;;;;;;;5016032;28;20202;-69
2024/02/21 07:31:41;;;;;;;17.07;8.70;;;;;;;;;;5031873;28;20722;-68
2024/02/21 07:34:07;;;;;;;17.33;8.70;;;;;;;;;;5022424;28;20694;-68
2024/02/21 07:36:32;;;;;;;13.07;7.60;;;;;;;;;;5028772;28;20589;-70
2024/02/21 07:38:57;;;;;;;14.63;8.17;;;;;;;;;;5022109;28;20221;-70
2024/02/21 07:41:23;;;;;;;17.50;8.17;;;;;;;;;;5025365;28;20175;-69
2024/02/21 07:43:51;;;;;;;18.73;9.47;;;;;;;;;;5015573;28;20272;-70
2024/02/21 07:46:17;;;;;;;15.30;9.73;;;;;;;;;;5028642;28;20241;-69
2024/02/21 07:48:42;;;;;;;17.93;8.53;;;;;;;;;;5031486;28;20701;-69
2024/02/21 07:51:07;;;;;;;23.03;9.17;;;;;;;;;;5029159;28;20185;-70
2024/02/21 07:53:32;;;;;;;25.67;11.70;;;;;;;;;;5030351;28;20285;-69
2024/02/21 07:55:58;;;;;;;20.97;9.70;;;;;;;;;;5029707;28;20182;-69
2024/02/21 07:58:23;;;;;;;21.97;9.37;;;;;;;;;;5019237;28;20186;-69
2024/02/21 08:00:48;;;;;;;23.87;9.37;;;;;;;;;;5028062;28;20170;-69
2024/02/21 08:03:15;;;;;;;16.47;8.33;;;;;;;;;;5029073;28;20182;-69
2024/02/21 08:05:40;;;;;;;18.17;8.97;;;;;;;;;;5026014;28;20179;-68
2024/02/21 08:08:07;;;;;;;16.33;9.00;;;;;;;;;;5018566;28;20188;-69
2024/02/21 08:10:32;;;;;;;20.90;8.60;;;;;;;;;;5013557;28;20210;-69
2024/02/21 08:12:57;;;;;;;19.27;9.07;;;;;;;;;;5028536;28;20185;-70
2024/02/21 08:15:28;;;;;;;18.77;8.10;;;;;;;;;;5027670;28;20221;-70
2024/02/21 08:17:53;;;;;;;15.80;8.90;;;;;;;;;;5028080;28;20319;-70
2024/02/21 08:20:18;;;;;;;15.57;9.07;;;;;;;;;;5026372;28;20206;-69
2024/02/21 08:22:43;;;;;;;16.43;9.47;;;;;;;;;;5027215;28;20201;-70
2024/02/21 08:25:08;;;;;;;19.53;10.57;;;;;;;;;;5035990;28;20264;-70
2024/02/21 08:27:34;;;;;;;18.20;9.90;;;;;;;;;;5030059;28;20179;-69
2024/02/21 08:29:59;;;;;;;16.93;9.77;;;;;;;;;;5028840;28;20561;-70
2024/02/21 08:32:24;;;;;;;19.20;9.23;;;;;;;;;;5030605;28;20205;-70
2024/02/21 08:34:50;;;;;;;16.63;9.23;;;;;;;;;;5028457;28;20203;-70
2024/02/21 08:37:15;;;;;;;20.43;9.83;;;;;;;;;;5023270;28;20827;-69
2024/02/21 08:39:40;;;;;;;20.43;9.67;;;;;;;;;;5011308;28;20221;-69
2024/02/21 08:42:05;;;;;;;16.43;8.80;;;;;;;;;;5031802;28;20200;-70
2024/02/21 08:44:31;;;;;;;18.00;9.27;;;;;;;;;;5009915;28;20673;-69
2024/02/21 08:46:56;;;;;;;14.03;8.50;;;;;;;;;;5015968;28;20237;-70
2024/02/21 08:49:21;;;;;;;21.20;9.17;;;;;;;;;;5024939;28;20225;-70
2024/02/21 08:51:47;;;;;;;17.07;8.40;;;;;;;;;;5027141;28;20187;-70
2024/02/21 08:54:12;;;;;;;19.07;8.80;;;;;;;;;;5025540;28;20292;-70
2024/02/21 08:56:38;;;;;;;15.60;7.83;;;;;;;;;;5027466;28;20174;-70
2024/02/21 08:59:20;;;;;;;24.45;7.97;;;;;;;;;;5044151;22;20229;-83
2024/02/21 09:01:45;;;;;;;17.33;7.33;;;;;;;;;;5064399;22;20317;-68
2024/02/21 09:04:10;;;;;;;12.07;7.07;;;;;;;;;;5025975;28;20261;-68
2024/02/21 09:06:39;;;;;;;14.70;8.63;;;;;;;;;;5023493;28;20578;-68
2024/02/21 09:09:04;;;;;;;18.52;7.72;;;;;;;;;;5029041;28;20198;-66
2024/02/21 09:11:29;;;;;;;14.03;7.17;;;;;;;;;;5028186;28;20201;-69
2024/02/21 09:13:54;;;;;;;18.52;8.30;;;;;;;;;;5028140;28;20202;-67
2024/02/21 09:16:20;;;;;;;12.43;6.80;;;;;;;;;;5026993;28;20823;-69
2024/02/21 09:18:46;;;;;;;16.33;6.80;;;;;;;;;;5027827;28;20744;-69
2024/02/21 09:21:11;;;;;;;15.10;7.60;;;;;;;;;;5025160;28;20170;-68
2024/02/21 09:23:36;;;;;;;15.55;7.65;;;;;;;;;;5026446;28;20190;-68
2024/02/21 09:26:04;;;;;;;12.35;6.75;;;;;;;;;;5026049;28;20182;-68
2024/02/21 09:28:29;;;;;;;17.92;7.65;;;;;;;;;;5025668;28;20204;-67
2024/02/21 09:30:54;;;;;;;13.90;7.28;;;;;;;;;;5021992;28;20287;-67
2024/02/21 09:33:19;;;;;;;11.57;6.85;;;;;;;;;;5028795;28;20324;-68
2024/02/21 09:35:44;;;;;;;15.57;6.72;;;;;;;;;;5027886;28;20170;-68
2024/02/21 09:38:10;;;;;;;11.30;6.40;;;;;;;;;;5027628;28;20562;-68
2024/02/21 09:40:38;;;;;;;12.23;6.40;;;;;;;;;;5025528;28;20197;-69
2024/02/21 09:43:06;;;;;;;11.20;5.97;;;;;;;;;;5026502;28;20177;-68
2024/02/21 09:45:32;;;;;;;13.95;6.53;;;;;;;;;;5032555;28;20182;-68
2024/02/21 09:48:16;;;;;;;13.63;6.60;;;;;;;;;;5031430;28;20592;-69
2024/02/21 09:50:43;;;;;;;12.90;6.22;;;;;;;;;;5029086;28;20200;-69
2024/02/21 09:53:09;;;;;;;13.05;6.18;;;;;;;;;;5026362;28;20220;-68
2024/02/21 09:55:35;;;;;;;9.88;5.50;;;;;;;;;;5027075;28;20202;-68
2024/02/21 09:58:01;;;;;;;11.27;6.40;;;;;;;;;;5024182;28;20184;-69
2024/02/21 10:00:27;;;;;;;8.77;5.22;;;;;;;;;;5024974;28;20237;-69
2024/02/21 10:02:52;;;;;;;10.93;5.90;;;;;;;;;;5023769;28;20201;-67
2024/02/21 10:05:17;;;;;;;9.25;5.32;;;;;;;;;;5025597;28;20186;-68
2024/02/21 10:07:43;;;;;;;10.15;6.13;;;;;;;;;;5024235;28;20175;-68
2024/02/21 10:10:09;;;;;;;9.35;5.75;;;;;;;;;;5027615;28;20237;-68
2024/02/21 10:12:34;;;;;;;10.57;5.95;;;;;;;;;;5025711;28;20186;-67
2024/02/21 10:15:00;;;;;;;8.15;5.18;;;;;;;;;;5026297;28;20242;-69
2024/02/21 10:17:25;;;;;;;10.18;5.80;;;;;;;;;;5025738;28;20453;-68
2024/02/21 10:19:52;;;;;;;12.32;5.45;;;;;;;;;;5027500;28;20264;-68
2024/02/21 10:22:17;;;;;;;8.63;4.97;;;;;;;;;;5021939;28;20190;-68
2024/02/21 10:24:42;;;;;;;9.50;4.70;;;;;;;;;;5024003;28;20179;-68
2024/02/21 10:27:08;;;;;;;10.05;4.68;;;;;;;;;;5025695;28;20210;-69
2024/02/21 10:29:34;;;;;;;8.88;4.60;;;;;;;;;;5024770;28;20612;-68
2024/02/21 10:32:09;;;;;;;5.28;3.80;;;;;;;;;;5025417;28;20189;-69
2024/02/21 10:34:35;;;;;;;9.75;5.13;;;;;;;;;;5023657;28;20193;-67
2024/02/21 10:37:01;;;;;;;7.30;4.78;;;;;;;;;;5026247;28;21254;-68
2024/02/21 10:39:26;;;;;;;8.05;4.80;;;;;;;;;;5025382;28;20727;-67
2024/02/21 10:41:51;;;;;;;5.38;3.72;;;;;;;;;;5021635;28;20182;-69
2024/02/21 10:44:18;;;;;;;8.65;4.65;;;;;;;;;;5023883;28;20186;-68
2024/02/21 10:46:43;;;;;;;6.53;3.58;;;;;;;;;;5023175;28;20870;-69
2024/02/21 10:49:13;;;;;;;7.05;4.25;;;;;;;;;;5024137;28;20289;-69
2024/02/21 10:51:42;;;;;;;8.95;4.78;;;;;;;;;;5022874;28;20190;-68
2024/02/21 10:54:26;;;;;;;5.88;3.75;;;;;;;;;;5025210;28;20709;-68
2024/02/21 10:56:52;;;;;;;6.07;3.72;;;;;;;;;;5027798;28;20273;-68
2024/02/21 10:59:18;;;;;;;7.28;4.22;;;;;;;;;;5025589;28;20317;-68
2024/02/21 11:01:43;;;;;;;6.47;4.38;;;;;;;;;;5017837;28;20194;-69
2024/02/21 11:04:10;;;;;;;5.93;4.00;;;;;;;;;;5025753;28;20193;-68
2024/02/21 11:06:37;;;;;;;7.47;5.03;;;;;;;;;;5021643;28;20183;-69
2024/02/21 11:09:06;;;;;;;7.35;5.25;;;;;;;;;;5023295;28;20203;-69
2024/02/21 11:11:35;;;;;;;7.85;4.95;;;;;;;;;;5024422;28;20170;-69
2024/02/21 11:14:19;;;;;;;11.55;5.35;;;;;;;;;;5024436;28;20586;-68
2024/02/21 11:16:45;;;;;;;9.25;5.53;;;;;;;;;;5023553;28;20261;-68
2024/02/21 11:19:24;;;;;;;9.35;5.85;;;;;;;;;;5025359;28;20678;-67
2024/02/21 11:21:50;;;;;;;9.50;6.43;;;;;;;;;;5023190;28;20174;-69
2024/02/21 11:24:29;;;;;;;8.55;5.78;;;;;;;;;;5026867;28;20492;-68
2024/02/21 11:26:54;;;;;;;9.77;5.57;;;;;;;;;;5020842;28;20570;-68
2024/02/21 11:29:23;;;;;;;7.50;5.75;;;;;;;;;;5026669;28;20213;-68
2024/02/21 11:31:48;;;;;;;9.80;6.05;;;;;;;;;;5021218;28;20183;-68
2024/02/21 11:34:17;;;;;;;8.52;5.90;;;;;;;;;;5022562;28;20248;-68
2024/02/21 11:36:49;;;;;;;10.20;6.55;;;;;;;;;;5024679;28;20187;-69
2024/02/21 11:39:22;;;;;;;17.00;9.13;;;;;;;;;;5025439;28;20206;-68
2024/02/21 11:41:58;;;;;;;9.73;6.75;;;;;;;;;;5025721;28;20183;-69
2024/02/21 11:44:23;;;;;;;8.02;5.88;;;;;;;;;;5027371;28;20642;-68
2024/02/21 11:46:48;;;;;;;10.27;6.53;;;;;;;;;;5019127;28;20185;-68
2024/02/21 11:49:14;;;;;;;9.88;5.72;;;;;;;;;;5026952;28;20677;-68
2024/02/21 11:51:39;;;;;;;10.32;5.45;;;;;;;;;;5022653;28;20567;-68
2024/02/21 11:54:05;;;;;;;11.77;6.78;;;;;;;;;;5027660;28;20201;-67
2024/02/21 11:56:30;;;;;;;7.63;4.95;;;;;;;;;;5025866;28;20181;-68
2024/02/21 11:58:58;;;;;;;8.82;6.07;;;;;;;;;;5024160;28;20203;-68
2024/02/21 12:01:24;;;;;;;7.82;5.30;;;;;;;;;;5028572;28;20186;-68
2024/02/21 12:03:49;;;;;;;9.02;5.20;;;;;;;;;;5019018;28;20642;-67
2024/02/21 12:06:19;;;;;;;7.45;5.38;;;;;;;;;;5027440;28;20186;-68
2024/02/21 12:08:44;;;;;;;10.40;5.45;;;;;;;;;;5022049;28;20174;-67
2024/02/21 12:11:19;;;;;;;8.30;4.75;;;;;;;;;;5027435;28;20273;-67
2024/02/21 12:13:45;;;;;;;6.00;4.90;;;;;;;;;;5025359;28;20190;-68
2024/02/21 12:16:10;;;;;;;10.38;5.45;;;;;;;;;;5026240;28;20575;-69
2024/02/21 12:18:36;;;;;;;7.15;5.53;;;;;;;;;;5028526;28;20639;-68
2024/02/21 12:21:01;;;;;;;7.30;4.75;;;;;;;;;;5022839;28;20174;-68
2024/02/21 12:23:26;;;;;;;5.75;4.68;;;;;;;;;;5028501;28;20174;-70
2024/02/21 12:25:54;;;;;;;8.55;4.82;;;;;;;;;;5025483;28;20181;-69
2024/02/21 12:28:19;;;;;;;7.45;4.78;;;;;;;;;;5026496;28;20253;-69
2024/02/21 12:30:44;;;;;;;9.88;5.03;;;;;;;;;;5025841;28;20932;-68
2024/02/21 12:33:09;;;;;;;6.68;4.57;;;;;;;;;;5024906;28;20640;-68
2024/02/21 12:35:35;;;;;;;8.85;4.13;;;;;;;;;;5027901;28;20217;-67
2024/02/21 12:38:01;;;;;;;7.53;5.07;;;;;;;;;;5021196;28;20637;-68
2024/02/21 12:40:32;;;;;;;6.78;4.45;;;;;;;;;;5028817;28;20190;-68
2024/02/21 12:42:57;;;;;;;13.45;4.63;;;;;;;;;;5028879;28;20273;-67
2024/02/21 12:45:22;;;;;;;4.97;3.70;;;;;;;;;;5029841;28;20300;-69
2024/02/21 12:47:47;;;;;;;8.73;4.18;;;;;;;;;;5026956;28;20171;-68
2024/02/21 12:50:15;;;;;;;6.97;4.60;;;;;;;;;;5026550;28;20201;-68
2024/02/21 12:52:40;;;;;;;6.28;4.28;;;;;;;;;;5026658;28;20539;-68
2024/02/21 12:55:05;;;;;;;7.28;4.28;;;;;;;;;;5030680;28;20198;-68
2024/02/21 12:57:30;;;;;;;9.48;4.72;;;;;;;;;;5031002;28;20642;-66
2024/02/21 12:59:56;;;;;;;5.78;3.50;;;;;;;;;;5024123;28;20272;-68
2024/02/21 13:02:21;;;;;;;7.82;4.22;;;;;;;;;;5027217;28;20669;-68
2024/02/21 13:04:46;;;;;;;8.63;4.22;;;;;;;;;;5028742;28;20200;-69
2024/02/21 13:07:11;;;;;;;6.72;3.83;;;;;;;;;;5030199;28;20496;-68
2024/02/21 13:09:37;;;;;;;7.25;3.42;;;;;;;;;;5025292;28;21236;-67
2024/02/21 13:12:02;;;;;;;4.30;3.58;;;;;;;;;;5025939;28;20193;-68
2024/02/21 13:14:27;;;;;;;7.50;3.90;;;;;;;;;;5025515;28;20212;-68
2024/02/21 13:16:53;;;;;;;8.30;4.43;;;;;;;;;;5030213;28;20178;-68
2024/02/21 13:19:18;;;;;;;7.07;4.60;;;;;;;;;;5026635;28;20209;-68
2024/02/21 13:21:43;;;;;;;9.45;4.38;;;;;;;;;;5025230;28;20549;-68
2024/02/21 13:24:08;;;;;;;6.13;3.95;;;;;;;;;;5029932;28;20234;-68
2024/02/21 13:26:33;;;;;;;5.65;4.13;;;;;;;;;;5028369;28;20272;-67
2024/02/21 13:28:59;;;;;;;10.18;3.90;;;;;;;;;;5028533;28;20195;-68
2024/02/21 13:31:25;;;;;;;8.27;5.32;;;;;;;;;;5026254;28;20272;-67
2024/02/21 13:33:50;;;;;;;6.05;3.92;;;;;;;;;;5026949;28;20285;-68
2024/02/21 13:36:15;;;;;;;6.65;4.18;;;;;;;;;;5027368;28;20308;-68
2024/02/21 13:38:40;;;;;;;9.45;4.55;;;;;;;;;;5027384;28;20228;-67
2024/02/21 13:41:06;;;;;;;9.27;4.20;;;;;;;;;;5025278;28;20193;-69
2024/02/21 13:43:32;;;;;;;7.82;4.30;;;;;;;;;;5027005;28;20171;-69
2024/02/21 13:46:02;;;;;;;6.80;4.30;;;;;;;;;;5025959;28;20178;-68
2024/02/21 13:48:28;;;;;;;6.22;4.13;;;;;;;;;;5027281;28;20265;-68
2024/02/21 13:50:54;;;;;;;7.35;4.47;;;;;;;;;;5027773;28;20720;-68
2024/02/21 13:53:20;;;;;;;7.82;4.47;;;;;;;;;;5023257;28;20174;-68
2024/02/21 13:55:45;;;;;;;9.38;4.32;;;;;;;;;;5027561;28;20206;-68
2024/02/21 13:58:12;;;;;;;7.53;3.63;;;;;;;;;;5027617;28;20591;-68
2024/02/21 14:00:37;;;;;;;5.32;4.07;;;;;;;;;;5024105;28;20281;-67
2024/02/21 14:03:03;;;;;;;7.45;4.35;;;;;;;;;;5027776;28;20337;-68
2024/02/21 14:05:28;;;;;;;6.97;3.55;;;;;;;;;;5025913;28;20635;-68
2024/02/21 14:07:54;;;;;;;9.13;4.57;;;;;;;;;;5024062;28;20194;-68
2024/02/21 14:10:20;;;;;;;11.00;5.03;;;;;;;;;;5024977;28;20210;-69
2024/02/21 14:12:45;;;;;;;14.70;5.07;;;;;;;;;;5026049;28;20594;-68
2024/02/21 14:15:10;;;;;;;11.57;4.53;;;;;;;;;;5027226;28;20745;-67
2024/02/21 14:17:35;;;;;;;6.68;3.58;;;;;;;;;;5025209;28;20182;-68
2024/02/21 14:20:01;;;;;;;8.70;4.25;;;;;;;;;;5022614;28;20208;-68
2024/02/21 14:22:26;;;;;;;8.93;4.13;;;;;;;;;;5024350;28;20704;-69
2024/02/21 14:24:51;;;;;;;6.88;4.38;;;;;;;;;;5020658;28;20736;-68
2024/02/21 14:27:16;;;;;;;6.13;4.15;;;;;;;;;;5026248;28;20240;-68